Terminal Aerodrome Forecast
Issued by NWS

Home | Current Version | Previous Version | Text Only | Print | Product List | Glossary On
Versions: 1 2 3 4 5 6 7 8 9 10 11 12 13 14 15 16 17 18 19 20 21
000
FTUS43 KDLH 251700
TAFHIB
TAF
KHIB 251739Z 2518/2618 27010KT P6SM -SN OVC015
     FM252100 30004KT P6SM -SN OVC018
     FM260400 34007KT P6SM -SN OVC012
     FM261500 35010KT P6SM -SN OVC020=

USA.gov is the U.S. government's official web portal to all federal, state and local government web resources and services.